Flight Track Log - Related Links

Times and Time Zones

All times are in EDT time to prevent confusion due to time zone crossing. See the N777NC flight status page for this flight to view local times or setup timezone preferences in your user account.

Time Position Orientation Groundspeed Altitude Reporting Facility
EDT Latitude Longitude Course Direction KTS MPH feet Rate Location/Type
Sat 03:21:11 PM 33.6500 -84.4667 276° West 166 191 2,300  Level Atlanta TRACON
Sat 03:22:11 PM 33.6667 -84.5333 287° West 264 304 4,200 2,500 Climbing Atlanta TRACON
Sat 03:23:11 PM 33.6833 -84.6167 284° West 261 300 7,300 2,650 Climbing Atlanta TRACON
Sat 03:24:00 PM 33.6785 -84.8356 277° West  Level FlightAware
Sat 03:24:11 PM 33.6833 -84.7167 270° West 274 315 9,500  Level Atlanta TRACON
Sat 03:25:00 PM 33.7004 -84.9208 276° West  Level FlightAware
Sat 03:25:57 PM 33.6494 -84.8872 257° West 327 376 12,200  Level Atlanta Center
Sat 03:26:00 PM 33.7089 -85.0230 276° West  Level FlightAware
Sat 03:26:57 PM 33.6361 -84.9944 262° West 338 389 14,300  Level Atlanta Center
Sat 03:27:57 PM 33.6372 -85.1142 271° West 343 395 16,000 1,800 Climbing Atlanta Center
Sat 03:28:57 PM 33.6361 -85.2314 269° West 348 400 17,900 1,950 Climbing Atlanta Center
Sat 03:29:57 PM 33.6244 -85.3511 263° West 358 412 19,900 1,050 Climbing Atlanta Center
Sat 03:30:57 PM 33.6106 -85.4756 262° West 375 432 20,000 -500 Climbing Atlanta Center
Sat 03:31:57 PM 33.6006 -85.6075 265° West 396 456 18,900 -2,200 Descending Atlanta Center
Sat 03:32:57 PM 33.5906 -85.7297 264° West 390 449 15,600 -3,250 Descending Atlanta Center
Sat 03:33:57 PM 33.5783 -85.8517 263° West 375 432 12,400 -2,300 Descending Atlanta Center
Sat 03:34:57 PM 33.5747 -85.9661 268° West 362 417 11,000 -700 Descending Atlanta Center
Sat 03:35:57 PM 33.5814 -86.0711 274° West 357 411 11,000 -50 Level Atlanta Center
Sat 03:36:57 PM 33.5708 -86.1906 264° West 344 396 10,900 -600 Descending Atlanta Center
Sat 03:37:57 PM 33.5628 -86.2900 264° West 325 374 9,800 -1,400 Descending Atlanta Center
Sat 03:38:57 PM 33.5531 -86.3769 262° West 300 345 8,100 -1,550 Descending Atlanta Center
Sat 03:39:57 PM 33.5431 -86.4539 261° West 282 325 6,700 -1,400 Descending Atlanta Center
Sat 03:40:57 PM 33.5228 -86.5356 253° West 271 312 5,300 -1,300 Descending Atlanta Center
Sat 03:41:57 PM 33.4878 -86.6067 239° Southwest 258 297 4,100 -1,050 Descending Atlanta Center
Sat 03:42:57 PM 33.4550 -86.6806 242° Southwest 258 297 3,200 -900 Descending Atlanta Center

Login

Don't have an account? Register now (free) for customized features, flight alerts, and more!